Adams Lake, Indiana
Current Conditions -  °F | °C
As of 5:55 PM on Sunday 25 Jan 2015 (Local Time) from KANQ Reporting Station
Overcast Overcast  
Wind Chill: -11°   Ceiling: 1600
Heat Index: -5°   Visibility: 10mi
Dew Point: -7°   Wind: 10mph
Humidity: 86%   Direction: 60°ENE
Pressure: 29.84"   Gusts: NA
Location:  41.5677°N, 85.3125°W
Report Text: KANQ 252255Z AUTO 06009KT 10SM BKN016 OVC021 M05/M07 A2984 RMK
Loading
Personal Weather Stations






























Interactive Weather Map New forecast layout! Learn more

10-Day Weather Forecast

Advertisements
Track Severe Weather on mobile